Time;durP1;ratioP1;P1;durP2;ratioP2;P2;SDS_P1;SDS_P2;PMS_P1;PMS_P2;Temp;Humidity;BMP_temperature;BMP_pressure;BME280_temperature;BME280_humidity;BME280_pressure;Samples;Min_cycle;Max_cycle;Signal;HPM_P1;HPM_P2
2022/08/16 00:01:38;;;;;;;;;30.33;27.00;;;;;23.67;100.00;100226.75;5025053;28;45523;-75
2022/08/16 00:04:04;;;;;;;;;34.67;29.00;;;;;23.71;100.00;100233.41;5029808;28;45364;-76
2022/08/16 00:06:30;;;;;;;;;28.00;26.67;;;;;23.65;100.00;100235.47;5030593;28;45584;-75
2022/08/16 00:08:55;;;;;;;;;26.33;26.33;;;;;23.64;100.00;100239.44;5022430;28;45713;-74
2022/08/16 00:11:21;;;;;;;;;29.33;27.67;;;;;23.63;100.00;100244.19;5023398;28;46114;-75
2022/08/16 00:13:49;;;;;;;;;31.67;26.00;;;;;23.58;100.00;100240.66;5023936;28;45630;-74
2022/08/16 00:16:14;;;;;;;;;31.00;29.00;;;;;23.62;100.00;100250.94;5023384;28;48157;-75
2022/08/16 00:18:40;;;;;;;;;31.00;25.67;;;;;23.62;100.00;100250.94;5022656;28;45452;-75
2022/08/16 00:21:05;;;;;;;;;30.00;24.33;;;;;23.61;100.00;100252.06;5017972;28;45495;-72
2022/08/16 00:23:32;;;;;;;;;32.33;30.00;;;;;23.62;100.00;100256.53;5021961;28;47165;-75
2022/08/16 00:25:57;;;;;;;;;34.67;31.33;;;;;23.60;100.00;100263.56;5029839;28;45479;-80
2022/08/16 00:28:24;;;;;;;;;35.00;29.33;;;;;23.58;100.00;100263.06;5030631;28;45884;-80
2022/08/16 00:30:50;;;;;;;;;31.33;27.00;;;;;23.57;100.00;100267.81;5029479;28;44853;-82
2022/08/16 00:33:15;;;;;;;;;29.67;28.00;;;;;23.58;100.00;100263.06;5036875;28;45170;-77
2022/08/16 00:35:41;;;;;;;;;27.33;27.33;;;;;23.59;100.00;100265.56;5036309;28;45351;-77
2022/08/16 00:38:07;;;;;;;;;31.33;29.00;;;;;23.60;100.00;100270.00;5026870;28;45704;-77
2022/08/16 00:40:43;;;;;;;;;28.33;26.00;;;;;23.62;100.00;100266.88;5029786;28;45455;-78
2022/08/16 00:43:18;;;;;;;;;27.67;26.67;;;;;23.49;100.00;100248.94;5029122;28;45794;-79
2022/08/16 00:46:02;;;;;;;;;30.67;28.67;;;;;23.62;100.00;100261.28;5029781;28;45475;-79
2022/08/16 00:48:30;;;;;;;;;26.00;24.00;;;;;23.64;100.00;100264.63;5038151;28;45787;-79
2022/08/16 00:50:55;;;;;;;;;28.00;26.00;;;;;23.54;100.00;100256.41;5030591;28;45402;-78
2022/08/16 00:53:22;;;;;;;;;31.33;29.33;;;;;23.65;100.00;100263.47;5020141;28;45511;-78
2022/08/16 00:55:51;;;;;;;;;30.33;26.00;;;;;23.68;100.00;100265.66;5023530;28;47193;-78
2022/08/16 00:58:18;;;;;;;;;25.67;23.00;;;;;23.71;100.00;100256.66;5028042;28;46053;-79
2022/08/16 01:00:46;;;;;;;;;32.33;28.33;;;;;23.73;100.00;100259.16;5042585;28;44817;-81
2022/08/16 01:03:14;;;;;;;;;26.33;23.67;;;;;23.75;100.00;100246.47;5041707;28;45430;-78
2022/08/16 01:05:41;;;;;;;;;30.67;28.67;;;;;23.76;100.00;100255.72;5033714;28;46173;-80
2022/08/16 01:08:10;;;;;;;;;34.33;26.67;;;;;23.77;100.00;100244.22;5032820;28;45247;-80
2022/08/16 01:10:36;;;;;;;;;25.67;25.33;;;;;23.62;100.00;100210.91;5035693;28;44788;-80
2022/08/16 01:13:04;;;;;;;;;29.67;27.67;;;;;23.69;100.00;100224.50;5053059;28;45921;-80
2022/08/16 01:15:32;;;;;;;;;30.33;28.33;;;;;23.80;100.00;100235.19;5030655;28;44952;-78
2022/08/16 01:17:58;;;;;;;;;33.33;29.00;;;;;23.81;100.00;100236.00;5018978;28;44853;-80
2022/08/16 01:20:28;;;;;;;;;32.33;28.00;;;;;23.77;100.00;100233.00;5029420;28;45418;-79
2022/08/16 01:23:09;;;;;;;;;31.33;28.33;;;;;23.78;100.00;100228.22;5031901;28;46203;-80
2022/08/16 01:25:40;;;;;;;;;25.00;24.67;;;;;23.80;100.00;100237.13;5044767;28;45419;-81
2022/08/16 01:28:12;;;;;;;;;27.33;27.33;;;;;23.75;100.00;100229.66;5048255;28;45455;-80
2022/08/16 01:30:43;;;;;;;;;28.00;26.67;;;;;23.79;100.00;100241.09;5033306;28;44867;-80
2022/08/16 01:33:09;;;;;;;;;31.67;30.67;;;;;23.75;100.00;100235.28;5041250;28;46071;-80
2022/08/16 01:35:47;;;;;;;;;27.33;24.67;;;;;23.78;100.00;100234.66;5032121;28;45049;-79
2022/08/16 01:38:21;;;;;;;;;29.33;28.00;;;;;23.80;100.00;100238.00;5033491;28;45318;-79
2022/08/16 01:40:50;;;;;;;;;31.33;26.00;;;;;23.77;100.00;100243.38;5054083;28;45435;-81
2022/08/16 01:43:16;;;;;;;;;30.00;27.33;;;;;23.78;100.00;100257.06;5032483;28;44781;-80
2022/08/16 01:45:41;;;;;;;;;29.33;27.67;;;;;23.71;100.00;100247.41;5033321;28;45707;-81
2022/08/16 01:48:10;;;;;;;;;30.67;30.33;;;;;23.73;100.00;100247.94;5035393;28;45360;-79
2022/08/16 01:50:39;;;;;;;;;31.33;29.00;;;;;23.76;100.00;100253.75;5049075;28;45678;-78
2022/08/16 01:53:04;;;;;;;;;22.67;20.33;;;;;23.68;100.00;100239.63;5050719;28;45424;-80
2022/08/16 01:55:30;;;;;;;;;30.00;27.00;;;;;23.64;100.00;100228.22;5042629;28;45308;-79
2022/08/16 01:57:55;;;;;;;;;29.00;25.67;;;;;23.72;100.00;100252.69;5037585;28;45449;-80
2022/08/16 02:00:23;;;;;;;;;33.67;32.33;;;;;23.74;100.00;100258.00;5039394;28;45140;-83
2022/08/16 02:02:49;;;;;;;;;30.33;26.67;;;;;23.71;100.00;100250.22;5034766;28;44782;-79
2022/08/16 02:05:14;;;;;;;;;30.33;29.33;;;;;23.59;100.00;100237.56;5033051;28;45660;-81
2022/08/16 02:07:40;;;;;;;;;27.33;23.33;;;;;23.63;100.00;100244.19;5044212;28;44740;-79
2022/08/16 02:10:07;;;;;;;;;33.00;29.00;;;;;23.56;100.00;100215.78;5024599;28;45354;-78
2022/08/16 02:12:33;;;;;;;;;24.00;24.00;;;;;23.68;100.00;100225.63;5028407;28;45362;-80
2022/08/16 02:14:59;;;;;;;;;26.67;23.67;;;;;23.68;100.00;100228.44;5032582;28;46343;-81
2022/08/16 02:17:24;;;;;;;;;31.00;27.00;;;;;23.65;100.00;100243.88;5035345;28;45361;-81
2022/08/16 02:19:52;;;;;;;;;30.67;25.00;;;;;23.63;100.00;100246.16;5035028;28;45363;-80
2022/08/16 02:22:21;;;;;;;;;26.67;25.00;;;;;23.65;100.00;100246.66;5034725;28;44769;-81
2022/08/16 02:24:47;;;;;;;;;29.00;25.67;;;;;23.57;100.00;100231.41;5035277;28;45257;-81
2022/08/16 02:27:13;;;;;;;;;26.00;25.33;;;;;23.66;100.00;100248.34;5026226;28;44836;-78
2022/08/16 02:29:40;;;;;;;;;29.67;26.33;;;;;23.65;100.00;100238.28;5032460;28;45438;-80
2022/08/16 02:32:07;;;;;;;;;23.33;22.00;;;;;23.63;100.00;100226.56;5016539;28;46147;-80
2022/08/16 02:34:33;;;;;;;;;31.00;30.00;;;;;23.63;100.00;100220.97;5021383;28;45730;-78
2022/08/16 02:36:59;;;;;;;;;30.67;27.67;;;;;23.59;100.00;100217.97;5026365;28;45296;-80
2022/08/16 02:39:24;;;;;;;;;33.67;29.33;;;;;23.52;100.00;100211.09;5038914;28;44899;-79
2022/08/16 02:41:51;;;;;;;;;26.67;26.33;;;;;23.61;100.00;100220.47;5032443;28;44885;-79
2022/08/16 02:44:18;;;;;;;;;28.00;28.00;;;;;23.62;100.00;100216.50;5028033;28;46968;-78
2022/08/16 02:46:43;;;;;;;;;31.00;29.33;;;;;23.46;100.00;100185.19;5035369;28;45327;-78
2022/08/16 02:49:10;;;;;;;;;31.67;29.00;;;;;23.56;100.00;100199.00;5037868;28;44805;-79
2022/08/16 02:51:37;;;;;;;;;31.67;28.33;;;;;23.53;100.00;100202.38;5038415;28;44713;-79
2022/08/16 02:54:04;;;;;;;;;28.33;25.00;;;;;23.50;100.00;100205.81;5034984;28;45668;-80
2022/08/16 02:56:30;;;;;;;;;32.00;30.00;;;;;23.44;100.00;100202.28;5037806;28;44869;-79
2022/08/16 02:58:56;;;;;;;;;36.33;31.00;;;;;23.26;100.00;100184.44;5036366;28;45550;-79
2022/08/16 03:01:25;;;;;;;;;35.67;30.67;;;;;23.29;100.00;100182.97;5033538;28;44825;-80
2022/08/16 03:03:53;;;;;;;;;34.33;31.00;;;;;23.35;100.00;100189.31;5018622;28;45464;-80
2022/08/16 03:06:20;;;;;;;;;34.00;30.33;;;;;23.26;100.00;100176.06;5016735;28;45452;-80
2022/08/16 03:08:47;;;;;;;;;31.33;29.67;;;;;23.22;100.00;100166.59;5019108;28;45439;-80
2022/08/16 03:11:13;;;;;;;;;35.00;30.67;;;;;23.23;100.00;100173.03;5030681;28;46374;-81
2022/08/16 03:13:39;;;;;;;;;32.67;30.67;;;;;23.21;100.00;100175.31;5020267;28;45517;-80
2022/08/16 03:16:05;;;;;;;;;27.67;27.67;;;;;23.19;100.00;100184.00;5019167;28;45348;-80
2022/08/16 03:18:32;;;;;;;;;33.33;31.67;;;;;23.16;100.00;100195.81;5019585;28;45431;-82
2022/08/16 03:21:00;;;;;;;;;35.33;30.67;;;;;23.16;100.00;100194.97;5019251;28;45493;-80
2022/08/16 03:23:26;;;;;;;;;27.67;26.00;;;;;23.15;100.00;100193.31;5018520;28;45655;-80
2022/08/16 03:25:52;;;;;;;;;40.00;32.00;;;;;23.20;100.00;100207.22;5018990;28;45474;-80
2022/08/16 03:28:19;;;;;;;;;27.67;26.67;;;;;23.23;100.00;100215.84;5018589;28;45459;-79
2022/08/16 03:30:45;;;;;;;;;28.00;27.67;;;;;23.27;100.00;100218.84;5023632;28;45891;-82
2022/08/16 03:33:11;;;;;;;;;35.00;30.00;;;;;23.23;100.00;100218.63;5024127;28;47268;-82
2022/08/16 03:35:38;;;;;;;;;27.00;26.33;;;;;23.25;100.00;100221.13;5018625;28;45474;-76
2022/08/16 03:38:06;;;;;;;;;28.33;26.67;;;;;23.15;100.00;100216.53;5027934;28;45415;-77
2022/08/16 03:40:34;;;;;;;;;28.00;27.00;;;;;23.23;100.00;100217.78;5030046;28;45689;-74
2022/08/16 03:43:04;;;;;;;;;30.67;28.67;;;;;23.30;100.00;100223.81;5019682;28;46297;-80
2022/08/16 03:45:30;;;;;;;;;36.67;31.33;;;;;23.27;100.00;100218.84;5023011;28;45839;-80
2022/08/16 03:47:56;;;;;;;;;32.33;30.33;;;;;23.25;100.00;100210.75;5011164;28;45459;-76
2022/08/16 03:50:21;;;;;;;;;30.00;28.00;;;;;23.21;100.00;100208.88;5024487;28;45638;-76
2022/08/16 03:52:47;;;;;;;;;31.00;30.00;;;;;23.09;100.00;100200.94;5013895;28;45636;-77
2022/08/16 03:55:13;;;;;;;;;36.67;32.33;;;;;23.15;100.00;100213.72;5014846;28;45479;-79
2022/08/16 03:57:39;;;;;;;;;32.67;31.00;;;;;23.06;100.00;100207.97;5014676;28;45806;-80
2022/08/16 04:00:26;;;;;;;;;34.67;32.00;;;;;23.04;100.00;100213.06;5016219;28;45853;-81
2022/08/16 04:02:54;;;;;;;;;31.00;28.00;;;;;23.04;100.00;100212.19;5011547;28;46567;-80
2022/08/16 04:05:20;;;;;;;;;30.67;29.33;;;;;23.00;100.00;100202.78;5017866;28;45667;-81
2022/08/16 04:07:45;;;;;;;;;31.33;28.00;;;;;22.98;100.00;100213.44;5020750;28;45751;-79
2022/08/16 04:10:15;;;;;;;;;24.33;23.00;;;;;22.94;100.00;100221.59;5018248;28;45469;-75
2022/08/16 04:12:43;;;;;;;;;33.00;32.33;;;;;22.91;100.00;100225.00;5011328;28;45928;-77
2022/08/16 04:15:11;;;;;;;;;33.00;31.00;;;;;22.84;100.00;100216.19;5015322;28;45722;-76
2022/08/16 04:17:37;;;;;;;;;33.33;31.00;;;;;22.94;100.00;100232.78;5013091;28;45459;-75
2022/08/16 04:20:07;;;;;;;;;31.67;31.67;;;;;22.88;100.00;100234.00;5019359;28;45816;-77
2022/08/16 04:22:33;;;;;;;;;31.33;30.67;;;;;22.91;100.00;100233.41;5015502;28;45411;-76
2022/08/16 04:24:59;;;;;;;;;32.00;29.33;;;;;22.88;100.00;100231.22;5024079;28;45801;-76
2022/08/16 04:27:25;;;;;;;;;33.33;30.00;;;;;22.86;100.00;100231.53;5013611;28;45435;-75
2022/08/16 04:29:51;;;;;;;;;37.67;33.33;;;;;22.90;100.00;100237.31;5015992;28;47150;-74
2022/08/16 04:32:16;;;;;;;;;34.00;30.33;;;;;22.91;100.00;100228.63;5011094;28;47954;-74
2022/08/16 04:34:41;;;;;;;;;33.00;29.67;;;;;22.97;100.00;100234.16;5013362;28;45542;-74
2022/08/16 04:37:07;;;;;;;;;31.00;31.00;;;;;23.00;100.00;100236.34;5014894;28;45473;-75
2022/08/16 04:39:34;;;;;;;;;29.33;25.67;;;;;23.03;100.00;100236.56;5014864;28;45614;-74
2022/08/16 04:42:00;;;;;;;;;31.33;29.33;;;;;23.06;100.00;100235.94;5012238;28;47249;-76
2022/08/16 04:44:26;;;;;;;;;28.00;28.00;;;;;23.13;100.00;100223.56;5012901;28;45397;-75
2022/08/16 04:46:52;;;;;;;;;29.67;24.67;;;;;23.18;100.00;100229.91;5010459;28;45555;-75
2022/08/16 04:49:18;;;;;;;;;28.00;25.00;;;;;23.25;100.00;100221.13;5013097;28;45436;-73
2022/08/16 04:51:44;;;;;;;;;27.33;25.67;;;;;23.24;100.00;100219.44;5011478;28;46177;-76
2022/08/16 04:54:10;;;;;;;;;30.33;29.33;;;;;23.26;100.00;100225.56;5010513;28;46111;-74
2022/08/16 04:56:36;;;;;;;;;27.33;26.00;;;;;23.13;100.00;100206.78;4995426;28;45568;-75
2022/08/16 04:59:03;;;;;;;;;31.33;30.00;;;;;23.25;100.00;100232.31;5012649;28;45648;-74
2022/08/16 05:01:28;;;;;;;;;24.33;21.33;;;;;23.32;100.00;100229.91;5016731;28;48598;-73
2022/08/16 05:03:54;;;;;;;;;30.33;23.67;;;;;23.42;100.00;100235.34;5023021;28;45473;-76
2022/08/16 05:06:19;;;;;;;;;24.67;22.67;;;;;23.49;100.00;100234.09;5009371;28;45804;-76
2022/08/16 05:08:45;;;;;;;;;26.67;23.67;;;;;23.60;100.00;100228.00;5004646;28;45337;-76
2022/08/16 05:11:12;;;;;;;;;26.67;25.33;;;;;23.66;100.00;100237.13;5013237;28;46585;-75
2022/08/16 05:13:40;;;;;;;;;24.33;24.33;;;;;23.70;100.00;100245.75;5014317;28;45390;-75
2022/08/16 05:16:08;;;;;;;;;24.67;23.67;;;;;23.57;100.00;100220.22;5013652;28;45682;-76
2022/08/16 05:18:35;;;;;;;;;25.33;24.33;;;;;23.77;100.00;100249.81;5013517;28;45439;-76
2022/08/16 05:21:01;;;;;;;;;28.00;25.33;;;;;23.77;100.00;100261.00;5013465;28;45389;-76
2022/08/16 05:23:26;;;;;;;;;25.00;25.00;;;;;23.79;100.00;100266.31;5014796;28;45359;-81
2022/08/16 05:25:52;;;;;;;;;25.00;23.00;;;;;23.79;100.00;100252.31;5028901;28;45556;-80
2022/08/16 05:28:17;;;;;;;;;20.33;20.33;;;;;23.91;100.00;100265.81;5028867;28;46910;-80
2022/08/16 05:30:43;;;;;;;;;32.33;25.67;;;;;23.89;100.00;100259.69;5015977;28;45445;-78
2022/08/16 05:33:10;;;;;;;;;28.00;26.00;;;;;23.95;100.00;100267.69;5017735;28;45748;-82
2022/08/16 05:35:35;;;;;;;;;26.33;25.33;;;;;24.02;100.00;100272.03;5016896;28;45537;-80
2022/08/16 05:38:01;;;;;;;;;32.67;29.67;;;;;24.01;100.00;100268.41;5028503;28;45590;-81
2022/08/16 05:40:26;;;;;;;;;26.33;23.00;;;;;24.00;100.00;100275.16;5030999;28;45441;-81
2022/08/16 05:42:52;;;;;;;;;25.33;24.00;;;;;24.07;100.00;100275.59;5017617;28;45870;-81
2022/08/16 05:45:18;;;;;;;;;29.33;26.33;;;;;24.07;100.00;100269.97;5017791;28;45544;-80
2022/08/16 05:47:43;;;;;;;;;27.33;25.00;;;;;24.06;100.00;100273.91;5015305;28;45797;-79
2022/08/16 05:50:09;;;;;;;;;26.67;23.67;;;;;24.08;100.00;100273.59;5016396;28;46465;-80
2022/08/16 05:52:35;;;;;;;;;26.33;24.67;;;;;24.06;100.00;100279.50;5016310;28;45581;-81
2022/08/16 05:55:01;;;;;;;;;19.00;19.00;;;;;24.05;100.00;100266.63;5004121;28;45705;-80
2022/08/16 05:57:26;;;;;;;;;23.33;23.33;;;;;24.14;100.00;100289.97;5014556;28;45753;-81
2022/08/16 05:59:52;;;;;;;;;26.00;22.67;;;;;24.20;100.00;100278.69;5016927;28;46531;-81
2022/08/16 06:02:18;;;;;;;;;27.33;26.33;;;;;24.29;100.00;100283.22;5016101;28;45650;-75
2022/08/16 06:04:43;;;;;;;;;21.33;21.33;;;;;24.36;100.00;100284.78;5012335;28;45355;-74
2022/08/16 06:07:09;;;;;;;;;23.67;21.67;;;;;24.51;100.00;100284.47;5015144;28;45424;-76
2022/08/16 06:09:35;;;;;;;;;22.00;20.00;;;;;24.74;100.00;100274.13;5015106;28;46908;-76
2022/08/16 06:12:01;;;;;;;;;26.00;20.33;;;;;25.02;100.00;100276.88;5015328;28;45844;-76
2022/08/16 06:14:28;;;;;;;;;21.33;21.33;;;;;25.35;100.00;100293.47;5016386;28;45408;-76
2022/08/16 06:16:54;;;;;;;;;25.00;22.33;;;;;25.55;100.00;100292.94;5005621;28;45481;-75
2022/08/16 06:19:19;;;;;;;;;24.67;22.67;;;;;25.64;100.00;100278.13;5013177;28;47308;-76
2022/08/16 06:21:46;;;;;;;;;20.00;19.67;;;;;25.86;100.00;100278.06;5016468;28;45570;-76
2022/08/16 06:24:12;;;;;;;;;18.33;18.33;;;;;26.00;100.00;100251.88;5016500;28;45345;-77
2022/08/16 06:26:37;;;;;;;;;22.67;22.00;;;;;26.63;100.00;100279.78;5016426;28;45481;-76
2022/08/16 06:29:03;;;;;;;;;19.00;18.00;;;;;27.30;100.00;100279.31;5015683;28;45488;-76
2022/08/16 06:31:29;;;;;;;;;22.33;20.33;;;;;27.99;100.00;100269.06;5015915;28;45504;-75
2022/08/16 06:33:54;;;;;;;;;22.67;21.67;;;;;28.64;100.00;100271.69;5016533;28;46280;-76
2022/08/16 06:36:19;;;;;;;;;19.00;18.33;;;;;29.51;100.00;100274.94;5015457;28;45368;-75
2022/08/16 06:38:45;;;;;;;;;20.33;20.00;;;;;29.70;100.00;100272.38;5016106;28;48004;-78
2022/08/16 06:41:11;;;;;;;;;22.67;18.67;;;;;29.70;100.00;100268.72;5016106;28;45539;-76
2022/08/16 06:43:37;;;;;;;;;22.33;17.67;;;;;29.70;100.00;100274.38;5016429;28;45856;-76
2022/08/16 06:46:08;;;;;;;;;14.67;13.00;;;;;29.51;100.00;100263.63;5000720;28;45452;-76
2022/08/16 06:48:34;;;;;;;;;19.00;17.00;;;;;29.35;100.00;100275.56;5009479;28;46097;-81
2022/08/16 06:51:05;;;;;;;;;17.00;13.67;;;;;28.82;100.00;100244.16;5012820;28;45864;-80
2022/08/16 06:53:32;;;;;;;;;17.67;17.67;;;;;28.59;100.00;100260.56;5018986;28;45411;-76
2022/08/16 06:56:02;;;;;;;;;17.67;17.67;;;;;28.33;100.00;100261.56;5017911;28;45571;-77
2022/08/16 06:58:31;;;;;;;;;15.33;14.00;;;;;28.18;100.00;100271.44;5017695;28;45903;-77
2022/08/16 07:00:56;;;;;;;;;13.33;13.33;;;;;27.94;100.00;100274.84;5017933;28;45439;-80
2022/08/16 07:03:21;;;;;;;;;12.00;11.33;;;;;27.76;100.00;100278.91;5019484;28;45380;-77
2022/08/16 07:05:47;;;;;;;;;11.67;10.67;;;;;27.72;100.00;100275.94;5020444;28;45391;-77
2022/08/16 07:08:13;;;;;;;;;14.67;14.67;;;;;27.40;100.00;100243.56;5014768;28;45395;-80
2022/08/16 07:10:38;;;;;;;;;9.33;9.33;;;;;27.42;100.00;100269.38;5011238;28;45493;-76
2022/08/16 07:13:04;;;;;;;;;16.67;15.67;;;;;27.23;100.00;100273.38;5027894;28;45732;-80
2022/08/16 07:15:30;;;;;;;;;18.33;16.33;;;;;27.07;100.00;100267.44;5020616;28;46159;-80
2022/08/16 07:17:56;;;;;;;;;15.67;13.67;;;;;26.94;100.00;100277.69;5019427;28;47051;-81
2022/08/16 07:20:24;;;;;;;;;12.33;11.33;;;;;26.83;100.00;100276.38;5014754;28;45779;-82
2022/08/16 07:22:50;;;;;;;;;11.67;11.67;;;;;26.74;100.00;100272.75;5018757;28;45513;-81
2022/08/16 07:25:15;;;;;;;;;14.00;12.67;;;;;26.73;100.00;100283.13;5019325;28;45473;-81
2022/08/16 07:27:41;;;;;;;;;13.67;12.67;;;;;26.66;100.00;100288.38;5029002;28;45537;-82
2022/08/16 07:30:12;;;;;;;;;12.33;12.33;;;;;26.58;100.00;100287.22;5028691;28;45459;-82
2022/08/16 07:32:37;;;;;;;;;13.33;13.33;;;;;26.40;100.00;100258.25;5016548;28;45420;-74
2022/08/16 07:35:04;;;;;;;;;18.33;14.33;;;;;26.53;100.00;100266.91;5014531;28;47221;-77
2022/08/16 07:37:30;;;;;;;;;12.67;12.67;;;;;26.46;100.00;100267.38;5016651;28;46686;-76
2022/08/16 07:39:56;;;;;;;;;15.67;13.00;;;;;26.60;100.00;100289.72;5019508;28;45478;-81
2022/08/16 07:42:22;;;;;;;;;13.00;10.67;;;;;26.59;100.00;100286.09;5020780;28;45345;-80
2022/08/16 07:44:47;;;;;;;;;17.00;15.67;;;;;26.60;100.00;100287.75;5026541;28;46058;-80
2022/08/16 07:47:13;;;;;;;;;13.67;13.67;;;;;26.61;100.00;100275.31;5027122;28;47317;-76
2022/08/16 07:49:39;;;;;;;;;13.00;11.67;;;;;26.64;100.00;100275.84;5026738;28;44790;-75
2022/08/16 07:52:04;;;;;;;;;15.00;15.00;;;;;26.79;100.00;100286.63;5045210;28;45741;-76
2022/08/16 07:54:30;;;;;;;;;18.33;13.00;;;;;26.82;100.00;100273.91;5027484;28;45866;-77
2022/08/16 07:56:55;;;;;;;;;15.50;13.50;;;;;26.92;100.00;100285.63;5020817;28;47121;-75
2022/08/16 07:59:23;;;;;;;;;13.00;13.00;;;;;27.06;100.00;100284.66;5022052;28;45400;-76
2022/08/16 08:01:51;;;;;;;;;12.33;11.67;;;;;27.12;100.00;100286.13;5011028;28;45423;-77
2022/08/16 08:04:17;;;;;;;;;16.67;11.67;;;;;27.16;100.00;100287.13;5022729;28;45323;-74
2022/08/16 08:06:43;;;;;;;;;13.67;13.67;;;;;27.40;100.00;100299.88;5021126;28;45620;-76
2022/08/16 08:09:09;;;;;;;;;14.33;12.67;;;;;27.56;100.00;100306.66;5021829;28;45812;-76
2022/08/16 08:11:34;;;;;;;;;13.33;13.33;;;;;27.80;100.00;100302.41;5017819;28;44794;-81
2022/08/16 08:14:00;;;;;;;;;16.67;15.00;;;;;28.13;100.00;100296.19;5019406;28;45764;-76
2022/08/16 08:16:26;;;;;;;;;12.00;11.00;;;;;28.48;100.00;100302.47;5018881;28;45454;-74
2022/08/16 08:18:53;;;;;;;;;12.33;12.00;;;;;28.66;100.00;100294.75;5017888;28;45309;-74
2022/08/16 08:21:20;;;;;;;;;13.33;12.33;;;;;28.91;100.00;100299.69;5007934;28;45768;-78
2022/08/16 08:23:47;;;;;;;;;14.33;12.00;;;;;28.98;100.00;100292.34;5021673;28;45393;-79
2022/08/16 08:26:13;;;;;;;;;17.33;16.67;;;;;29.17;100.00;100294.66;5011187;28;45720;-77
2022/08/16 08:28:40;;;;;;;;;12.67;11.67;;;;;29.32;100.00;100276.28;5016836;28;45597;-76
2022/08/16 08:31:06;;;;;;;;;12.67;12.67;;;;;29.74;100.00;100297.94;5016440;28;45442;-77
2022/08/16 08:33:32;;;;;;;;;11.33;11.33;;;;;29.97;98.52;100289.06;5033878;28;46692;-77
2022/08/16 08:36:06;;;;;;;;;13.33;12.67;;;;;30.42;95.35;100305.94;5017185;28;46033;-73
2022/08/16 08:38:33;;;;;;;;;15.00;15.00;;;;;30.70;91.50;100302.34;5018734;28;45580;-76
2022/08/16 08:40:59;;;;;;;;;15.00;13.00;;;;;30.90;88.90;100296.88;5011876;28;45791;-76
2022/08/16 08:43:25;;;;;;;;;12.00;11.00;;;;;30.98;84.93;100301.59;5009667;28;45948;-75
2022/08/16 08:45:54;;;;;;;;;12.67;10.33;;;;;30.97;83.47;100300.78;5013262;28;46203;-75
2022/08/16 08:48:20;;;;;;;;;12.67;12.67;;;;;30.81;84.00;100305.53;5028210;28;45324;-74
2022/08/16 08:50:45;;;;;;;;;15.00;14.00;;;;;30.78;83.70;100309.91;5026198;28;45477;-77
2022/08/16 08:53:11;;;;;;;;;15.67;13.33;;;;;30.77;81.28;100313.09;5013351;28;45856;-76
2022/08/16 08:55:37;;;;;;;;;12.67;11.67;;;;;30.76;80.36;100303.75;5016979;28;45606;-77
2022/08/16 08:58:02;;;;;;;;;15.00;13.00;;;;;30.80;80.26;100310.34;5017564;28;45515;-76
2022/08/16 09:00:28;;;;;;;;;12.00;12.00;;;;;30.68;79.12;100289.75;5021705;28;44826;-78
2022/08/16 09:02:54;;;;;;;;;14.00;12.67;;;;;30.77;78.37;100301.78;5021291;28;45386;-77
2022/08/16 09:05:22;;;;;;;;;13.67;11.33;;;;;30.65;77.85;100291.28;5025386;28;45380;-77
2022/08/16 09:07:48;;;;;;;;;12.00;12.00;;;;;30.80;77.25;100312.38;5021085;28;45475;-77
2022/08/16 09:10:13;;;;;;;;;9.67;9.67;;;;;30.91;77.80;100310.69;5018031;28;45440;-77
2022/08/16 09:12:39;;;;;;;;;13.33;12.67;;;;;31.13;76.19;100315.00;5022242;28;45309;-77
2022/08/16 09:15:07;;;;;;;;;12.67;12.67;;;;;31.48;73.11;100313.56;5023591;28;45764;-79
2022/08/16 09:17:33;;;;;;;;;13.00;12.00;;;;;31.94;70.55;100299.03;5010474;28;45455;-79
2022/08/16 09:19:58;;;;;;;;;11.67;10.33;;;;;32.72;67.83;100322.88;5032101;28;45499;-78
2022/08/16 09:22:26;;;;;;;;;12.00;12.00;;;;;33.80;62.14;100323.53;5022841;28;45533;-77
2022/08/16 09:24:52;;;;;;;;;11.00;11.00;;;;;35.13;56.35;100325.66;5018626;28;45501;-76
2022/08/16 09:27:18;;;;;;;;;10.33;10.33;;;;;36.37;51.35;100327.41;5017636;28;44697;-75
2022/08/16 09:29:44;;;;;;;;;11.00;11.00;;;;;37.50;46.19;100328.88;5018952;28;45935;-77
2022/08/16 09:32:10;;;;;;;;;12.33;9.33;;;;;38.09;43.74;100328.63;5021680;28;45919;-77
2022/08/16 09:34:38;;;;;;;;;11.00;11.00;;;;;38.21;43.31;100313.09;5018868;28;46283;-75
2022/08/16 09:37:03;;;;;;;;;11.67;10.33;;;;;38.43;40.80;100331.06;5013080;28;45474;-74
2022/08/16 09:39:29;;;;;;;;;8.33;8.33;;;;;38.13;40.99;100329.41;5020657;28;45744;-76
2022/08/16 09:41:57;;;;;;;;;6.33;6.33;;;;;37.74;41.29;100313.88;5019225;28;45918;-76
2022/08/16 09:44:24;;;;;;;;;13.67;10.33;;;;;37.46;41.73;100323.16;5029545;28;46342;-82
2022/08/16 09:46:51;;;;;;;;;11.00;11.00;;;;;37.22;42.31;100322.63;5032519;28;45453;-79
2022/08/16 09:49:17;;;;;;;;;9.33;8.00;;;;;37.04;41.48;100322.56;5030262;28;45444;-75
2022/08/16 09:51:42;;;;;;;;;10.00;9.00;;;;;36.74;41.68;100314.22;5022831;28;45789;-76
2022/08/16 09:54:09;;;;;;;;;11.67;10.67;;;;;36.82;41.29;100335.91;5022580;28;46291;-76
2022/08/16 09:56:36;;;;;;;;;11.33;10.00;;;;;36.43;41.66;100339.31;5036668;28;45857;-77
2022/08/16 09:59:04;;;;;;;;;10.00;10.00;;;;;35.85;42.46;100332.25;5023577;28;45313;-79
2022/08/16 10:01:30;;;;;;;;;12.67;10.33;;;;;35.55;43.79;100335.97;5022709;28;45471;-76
2022/08/16 10:03:57;;;;;;;;;10.67;10.67;;;;;35.29;44.29;100328.34;5028642;28;48164;-76
2022/08/16 10:06:24;;;;;;;;;13.67;11.67;;;;;35.46;43.54;100332.59;5027708;28;46059;-76
2022/08/16 10:08:50;;;;;;;;;12.00;10.00;;;;;35.71;43.48;100330.03;5021357;28;45779;-77
2022/08/16 10:14:00;;;;;;;;;11.67;10.00;;;;;35.20;44.55;100337.16;5029624;28;45525;-81
2022/08/16 10:16:26;;;;;;;;;13.00;11.33;;;;;35.12;44.79;100335.41;5031456;28;45281;-82
2022/08/16 10:18:52;;;;;;;;;8.00;7.67;;;;;34.91;44.99;100327.41;5032585;28;45525;-82
2022/08/16 10:21:17;;;;;;;;;10.67;10.67;;;;;35.19;45.39;100335.50;5032324;28;44863;-83
2022/08/16 10:23:44;;;;;;;;;12.33;11.00;;;;;36.22;43.66;100322.78;5029614;28;46788;-81
2022/08/16 10:26:10;;;;;;;;;10.00;9.00;;;;;36.47;42.38;100327.91;5030813;28;45812;-74
2022/08/16 10:28:37;;;;;;;;;10.33;10.33;;;;;37.06;40.18;100337.25;5006722;28;45318;-74
2022/08/16 10:31:03;;;;;;;;;14.00;12.67;;;;;36.91;40.30;100338.41;5024105;28;44797;-75
2022/08/16 10:33:30;;;;;;;;;10.00;10.00;;;;;36.68;40.65;100330.06;5024352;28;45399;-77
2022/08/16 10:35:56;;;;;;;;;11.33;11.33;;;;;36.66;40.17;100336.19;5021861;28;44846;-78
2022/08/16 10:38:21;;;;;;;;;9.33;8.67;;;;;36.44;40.79;100335.25;5022749;28;45293;-78
2022/08/16 10:40:47;;;;;;;;;10.00;8.33;;;;;36.00;40.72;100311.16;5041670;28;45469;-80
2022/08/16 10:43:13;;;;;;;;;12.67;10.33;;;;;35.87;41.34;100318.38;5016595;28;46015;-79
2022/08/16 10:45:40;;;;;;;;;10.33;10.33;;;;;35.55;42.16;100335.16;5022729;28;45577;-79
2022/08/16 10:48:08;;;;;;;;;9.67;9.67;;;;;35.00;43.01;100325.91;5022752;28;45824;-77
2022/08/16 10:50:35;;;;;;;;;11.00;9.67;;;;;34.76;44.03;100334.88;5022512;28;45454;-76
2022/08/16 10:53:05;;;;;;;;;10.67;10.67;;;;;34.50;43.98;100332.88;5021896;28;45741;-78
2022/08/16 10:55:36;;;;;;;;;10.33;10.33;;;;;34.34;44.60;100328.16;5015477;28;45325;-78
2022/08/16 10:58:09;;;;;;;;;11.00;10.67;;;;;34.08;45.34;100306.16;5020016;28;45458;-77
2022/08/16 11:00:36;;;;;;;;;9.33;8.67;;;;;33.99;46.08;100331.19;5021109;28;45497;-76
2022/08/16 11:03:02;;;;;;;;;11.00;10.00;;;;;33.94;46.99;100340.88;5021923;28;46693;-77
2022/08/16 11:05:33;;;;;;;;;12.67;12.67;;;;;33.77;47.40;100330.78;5010303;28;45478;-79